createdAt,value
2022-09-26T00:00:11.936Z,10.13
2022-09-26T00:01:11.922Z,10.11
2022-09-26T00:02:11.894Z,10.11
2022-09-26T00:03:11.827Z,10.17
2022-09-26T00:04:11.762Z,10.11
2022-09-26T00:05:11.719Z,10.22
2022-09-26T00:06:11.690Z,10.14
2022-09-26T00:07:11.636Z,10.06
2022-09-26T00:08:11.599Z,10.18
2022-09-26T00:09:11.636Z,10.14
2022-09-26T00:10:11.533Z,10.14
2022-09-26T00:11:11.473Z,10.02
2022-09-26T00:12:11.437Z,10.17
2022-09-26T00:13:11.391Z,10.10
2022-09-26T00:14:11.354Z,10.10
2022-09-26T00:15:11.312Z,10.04
2022-09-26T00:16:11.432Z,10.22
2022-09-26T00:17:11.262Z,10.16
2022-09-26T00:18:11.224Z,10.13
2022-09-26T00:19:11.249Z,10.13
2022-09-26T00:20:11.109Z,10.17
2022-09-26T00:21:11.077Z,10.09
2022-09-26T00:22:11.031Z,10.20
2022-09-26T00:23:10.989Z,10.14
2022-09-26T00:24:10.960Z,10.11
2022-09-26T00:25:10.905Z,10.18
2022-09-26T00:26:10.866Z,10.16
2022-09-26T00:27:10.829Z,10.11
2022-09-26T00:28:10.786Z,10.17
2022-09-26T00:29:10.749Z,10.24
2022-09-26T00:30:10.718Z,10.16
2022-09-26T00:31:10.715Z,10.17
2022-09-26T00:32:10.624Z,10.26
2022-09-26T00:33:10.583Z,10.24
2022-09-26T00:34:10.541Z,10.22
2022-09-26T00:35:10.501Z,10.25
2022-09-26T00:36:10.485Z,10.31
2022-09-26T00:37:10.443Z,10.34
2022-09-26T00:38:10.380Z,10.32
2022-09-26T00:39:10.336Z,10.39
2022-09-26T00:40:10.355Z,10.36
2022-09-26T00:41:10.259Z,10.46
2022-09-26T00:42:10.218Z,10.42
2022-09-26T00:43:10.213Z,10.57
2022-09-26T00:44:10.138Z,10.52
2022-09-26T00:45:10.095Z,10.55
2022-09-26T00:46:10.113Z,10.60
2022-09-26T00:47:10.019Z,10.58
2022-09-26T00:48:09.974Z,10.66
2022-09-26T00:49:09.940Z,10.66
2022-09-26T00:50:09.887Z,10.62
2022-09-26T00:51:09.918Z,10.75
2022-09-26T00:52:09.811Z,10.69
2022-09-26T00:53:09.767Z,10.69
2022-09-26T00:54:09.747Z,10.63
2022-09-26T00:55:09.687Z,10.69
2022-09-26T00:56:09.649Z,10.70
2022-09-26T00:57:09.607Z,10.66
2022-09-26T00:58:09.569Z,10.75
2022-09-26T00:59:09.576Z,10.72
2022-09-26T01:00:09.498Z,10.84
2022-09-26T01:01:09.581Z,10.70
2022-09-26T01:02:09.494Z,10.73
2022-09-26T01:03:09.370Z,10.76
2022-09-26T01:04:09.324Z,10.84
2022-09-26T01:05:09.285Z,10.80
2022-09-26T01:06:09.271Z,10.78
2022-09-26T01:07:09.204Z,10.88
2022-09-26T01:08:09.162Z,10.80
2022-09-26T01:09:09.321Z,10.83
2022-09-26T01:10:09.093Z,10.90
2022-09-26T01:11:12.490Z,10.81
2022-09-26T01:12:09.011Z,10.84
2022-09-26T01:13:08.957Z,10.75
2022-09-26T01:14:08.919Z,10.87
2022-09-26T01:15:08.891Z,10.86
2022-09-26T01:16:08.894Z,10.84
2022-09-26T01:17:08.862Z,10.81
2022-09-26T01:18:08.780Z,10.94
2022-09-26T01:19:08.760Z,10.87
2022-09-26T01:20:08.675Z,10.81
2022-09-26T01:21:08.633Z,10.86
2022-09-26T01:22:08.596Z,10.75
2022-09-26T01:23:08.554Z,10.86
2022-09-26T01:24:08.525Z,10.83
2022-09-26T01:25:08.477Z,10.83
2022-09-26T01:26:08.434Z,10.76
2022-09-26T01:27:08.399Z,10.78
2022-09-26T01:28:08.352Z,10.81
2022-09-26T01:29:08.378Z,10.88
2022-09-26T01:30:08.285Z,10.83
2022-09-26T01:31:08.309Z,10.73
2022-09-26T01:32:08.191Z,10.78
2022-09-26T01:33:08.170Z,10.81
2022-09-26T01:34:08.116Z,10.72
2022-09-26T01:35:08.083Z,10.78
2022-09-26T01:36:08.030Z,10.81
2022-09-26T01:37:07.990Z,10.81
2022-09-26T01:38:07.988Z,10.86
2022-09-26T01:39:07.908Z,10.84
2022-09-26T01:40:07.867Z,10.76
2022-09-26T01:41:07.833Z,10.88
2022-09-26T01:42:07.805Z,11.02
2022-09-26T01:43:07.746Z,10.88
2022-09-26T01:44:07.704Z,10.84
2022-09-26T01:45:16.935Z,10.91
2022-09-26T01:46:07.740Z,10.91
2022-09-26T01:47:07.609Z,10.87
2022-09-26T01:48:07.543Z,10.91
2022-09-26T01:49:07.500Z,10.93
2022-09-26T01:50:07.462Z,10.98
2022-09-26T01:51:07.423Z,10.94
2022-09-26T01:52:07.392Z,10.93
2022-09-26T01:53:07.337Z,10.91
2022-09-26T01:54:07.299Z,10.93
2022-09-26T01:55:07.258Z,10.90
2022-09-26T01:56:07.217Z,10.81
2022-09-26T01:57:07.202Z,10.86
2022-09-26T01:58:07.137Z,10.91
2022-09-26T01:59:07.097Z,10.94
2022-09-26T02:00:07.056Z,10.87
2022-09-26T02:01:07.229Z,10.87
2022-09-26T02:02:07.009Z,10.94
2022-09-26T02:03:06.946Z,10.95
2022-09-26T02:04:06.897Z,10.86
2022-09-26T02:05:06.854Z,10.90
2022-09-26T02:06:06.823Z,10.95
2022-09-26T02:07:06.771Z,10.94
2022-09-26T02:08:06.735Z,10.98
2022-09-26T02:09:06.705Z,10.93
2022-09-26T02:10:06.660Z,10.91
2022-09-26T02:11:06.608Z,10.86
2022-09-26T02:12:06.588Z,10.95
2022-09-26T02:13:06.527Z,11.01
2022-09-26T02:14:06.492Z,10.94
2022-09-26T02:15:06.463Z,10.93
2022-09-26T02:16:06.491Z,10.91
2022-09-26T02:17:06.367Z,10.90
2022-09-26T02:18:06.330Z,10.99
2022-09-26T02:19:06.336Z,10.95
2022-09-26T02:20:06.479Z,10.90
2022-09-26T02:21:06.204Z,10.90
2022-09-26T02:22:06.163Z,10.94
2022-09-26T02:23:06.120Z,10.95
2022-09-26T02:24:06.088Z,10.93
2022-09-26T02:25:06.043Z,10.88
2022-09-26T02:26:06.029Z,10.91
2022-09-26T02:27:05.960Z,11.02
2022-09-26T02:28:05.925Z,10.98
2022-09-26T02:29:05.924Z,11.03
2022-09-26T02:30:05.841Z,11.05
2022-09-26T02:31:05.822Z,10.94
2022-09-26T02:32:05.874Z,10.94
2022-09-26T02:33:05.717Z,10.95
2022-09-26T02:34:05.681Z,11.03
2022-09-26T02:35:05.637Z,10.99
2022-09-26T02:36:05.599Z,10.95
2022-09-26T02:37:05.557Z,11.08
2022-09-26T02:38:05.527Z,11.09
2022-09-26T02:39:05.515Z,11.11
2022-09-26T02:40:05.434Z,11.06
2022-09-26T02:41:05.394Z,11.13
2022-09-26T02:42:05.355Z,11.12
2022-09-26T02:43:05.314Z,11.09
2022-09-26T02:44:05.287Z,11.11
2022-09-26T02:45:05.234Z,11.13
2022-09-26T02:46:05.242Z,11.11
2022-09-26T02:47:05.153Z,11.16
2022-09-26T02:48:05.113Z,11.17
2022-09-26T02:49:05.087Z,11.13
2022-09-26T02:50:05.046Z,11.21
2022-09-26T02:51:04.992Z,11.06
2022-09-26T02:52:04.952Z,11.16
2022-09-26T02:53:04.910Z,11.13
2022-09-26T02:54:04.871Z,11.13
2022-09-26T02:55:04.830Z,11.21
2022-09-26T02:56:04.807Z,11.20
2022-09-26T02:57:04.750Z,11.23
2022-09-26T02:58:04.710Z,11.24
2022-09-26T02:59:04.668Z,11.24
2022-09-26T03:00:04.631Z,11.33
2022-09-26T03:01:04.642Z,11.24
2022-09-26T03:02:04.546Z,11.30
2022-09-26T03:03:04.506Z,11.30
2022-09-26T03:04:04.468Z,11.28
2022-09-26T03:05:04.485Z,11.24
2022-09-26T03:06:04.399Z,11.26
2022-09-26T03:07:04.347Z,11.28
2022-09-26T03:08:04.310Z,11.31
2022-09-26T03:09:04.262Z,11.38
2022-09-26T03:10:04.224Z,11.31
2022-09-26T03:11:04.194Z,11.28
2022-09-26T03:12:04.144Z,11.30
2022-09-26T03:13:04.103Z,11.35
2022-09-26T03:14:04.064Z,11.30
2022-09-26T03:15:04.023Z,11.27
2022-09-26T03:16:04.017Z,11.36
2022-09-26T03:17:03.955Z,11.27
2022-09-26T03:18:03.901Z,11.31
2022-09-26T03:19:03.861Z,11.24
2022-09-26T03:20:03.820Z,11.27
2022-09-26T03:21:03.779Z,11.27
2022-09-26T03:22:03.753Z,11.35
2022-09-26T03:23:03.699Z,11.30
2022-09-26T03:24:03.670Z,11.28
2022-09-26T03:25:03.619Z,11.35
2022-09-26T03:26:03.579Z,11.33
2022-09-26T03:27:03.547Z,11.36
2022-09-26T03:28:03.499Z,11.49
2022-09-26T03:29:03.471Z,11.39
2022-09-26T03:30:03.421Z,11.35
2022-09-26T03:31:03.379Z,11.36
2022-09-26T03:32:03.435Z,11.39
2022-09-26T03:33:03.320Z,11.39
2022-09-26T03:34:03.270Z,11.33
2022-09-26T03:35:03.235Z,11.38
2022-09-26T03:36:03.174Z,11.46
2022-09-26T03:37:03.134Z,11.41
2022-09-26T03:38:03.093Z,11.36
2022-09-26T03:39:03.053Z,11.42
2022-09-26T03:40:03.021Z,11.31
2022-09-26T03:41:03.073Z,11.28
2022-09-26T03:42:02.931Z,11.35
2022-09-26T03:43:02.890Z,11.45
2022-09-26T03:44:02.852Z,11.41
2022-09-26T03:45:02.811Z,11.38
2022-09-26T03:46:02.814Z,11.33
2022-09-26T03:47:02.730Z,11.33
2022-09-26T03:48:02.706Z,11.28
2022-09-26T03:49:02.654Z,11.41
2022-09-26T03:50:02.618Z,11.42
2022-09-26T03:51:02.586Z,11.41
2022-09-26T03:52:02.532Z,11.36
2022-09-26T03:53:02.498Z,11.38
2022-09-26T03:54:02.447Z,11.49
2022-09-26T03:55:02.408Z,11.39
2022-09-26T03:56:02.367Z,11.41
2022-09-26T03:57:02.327Z,11.42
2022-09-26T03:58:02.305Z,11.39
2022-09-26T03:59:02.246Z,11.36
2022-09-26T04:00:02.210Z,11.44
2022-09-26T04:01:02.242Z,11.38
2022-09-26T04:02:02.200Z,11.33
2022-09-26T04:03:02.096Z,11.45
2022-09-26T04:04:02.059Z,11.41
2022-09-26T04:05:02.003Z,11.39
2022-09-26T04:06:01.977Z,11.33
2022-09-26T04:07:01.923Z,11.38
2022-09-26T04:08:01.881Z,11.36
2022-09-26T04:09:01.841Z,11.45
2022-09-26T04:10:01.839Z,11.35
2022-09-26T04:11:01.766Z,11.41
2022-09-26T04:12:01.720Z,11.24
2022-09-26T04:13:01.681Z,11.38
2022-09-26T04:14:01.638Z,11.33
2022-09-26T04:15:01.602Z,11.33
2022-09-26T04:16:01.639Z,11.46
2022-09-26T04:17:01.520Z,11.41
2022-09-26T04:18:01.479Z,11.41
2022-09-26T04:19:01.441Z,11.42
2022-09-26T04:20:01.396Z,11.41
2022-09-26T04:21:01.359Z,11.45
2022-09-26T04:22:01.332Z,11.49
2022-09-26T04:23:01.288Z,11.49
2022-09-26T04:24:01.243Z,11.49
2022-09-26T04:25:01.201Z,11.59
2022-09-26T04:26:01.158Z,11.41
2022-09-26T04:27:01.127Z,11.42
2022-09-26T04:28:01.085Z,11.44
2022-09-26T04:29:01.037Z,11.46
2022-09-26T04:30:00.994Z,11.49
2022-09-26T04:31:00.959Z,11.45
2022-09-26T04:32:00.957Z,11.51
2022-09-26T04:33:00.874Z,11.51
2022-09-26T04:34:00.833Z,11.44
2022-09-26T04:35:00.794Z,11.51
2022-09-26T04:36:00.751Z,11.48
2022-09-26T04:37:00.716Z,11.44
2022-09-26T04:38:00.684Z,11.46
2022-09-26T04:39:00.693Z,11.51
2022-09-26T04:40:00.590Z,11.54
2022-09-26T04:41:00.647Z,11.45
2022-09-26T04:42:00.509Z,11.51
2022-09-26T04:43:00.470Z,11.56
2022-09-26T04:44:00.442Z,11.41
2022-09-26T04:45:00.390Z,11.51
2022-09-26T04:46:00.377Z,11.41
2022-09-26T04:47:00.311Z,11.53
2022-09-26T04:48:00.266Z,11.51
2022-09-26T04:49:00.237Z,11.51
2022-09-26T04:50:00.200Z,11.45
2022-09-26T04:51:00.147Z,11.48
2022-09-26T04:52:00.116Z,11.54
2022-09-26T04:53:00.068Z,11.42
2022-09-26T04:54:00.028Z,11.45
2022-09-26T04:54:59.985Z,11.46
2022-09-26T04:55:59.956Z,11.60
2022-09-26T04:57:00.507Z,11.54
2022-09-26T04:57:59.999Z,11.54
2022-09-26T04:58:59.827Z,11.49
2022-09-26T04:59:59.783Z,11.44
2022-09-26T05:00:59.764Z,11.35
2022-09-26T05:01:59.770Z,11.39
2022-09-26T05:02:59.663Z,11.44
2022-09-26T05:03:59.620Z,11.45
2022-09-26T05:04:59.580Z,11.44
2022-09-26T05:05:59.549Z,11.38
2022-09-26T05:06:59.503Z,11.38
2022-09-26T05:07:59.474Z,11.31
2022-09-26T05:08:59.420Z,11.28
2022-09-26T05:09:59.377Z,11.31
2022-09-26T05:10:59.341Z,11.28
2022-09-26T05:11:59.298Z,11.21
2022-09-26T05:12:59.266Z,11.24
2022-09-26T05:13:59.216Z,11.26
2022-09-26T05:14:59.176Z,11.27
2022-09-26T05:15:59.173Z,11.21
2022-09-26T05:16:59.095Z,11.30
2022-09-26T05:17:59.068Z,11.28
2022-09-26T05:18:59.021Z,11.38
2022-09-26T05:19:58.977Z,11.31
2022-09-26T05:20:58.935Z,11.24
2022-09-26T05:21:58.893Z,11.21
2022-09-26T05:22:58.853Z,11.41
2022-09-26T05:23:58.834Z,11.41
2022-09-26T05:24:58.778Z,11.35
2022-09-26T05:25:58.730Z,11.44
2022-09-26T05:26:58.694Z,11.35
2022-09-26T05:27:58.650Z,11.48
2022-09-26T05:28:58.611Z,11.44
2022-09-26T05:29:58.581Z,11.35
2022-09-26T05:30:58.532Z,11.38
2022-09-26T05:31:58.535Z,11.33
2022-09-26T05:32:58.454Z,11.42
2022-09-26T05:33:58.409Z,11.48
2022-09-26T05:34:58.383Z,11.38
2022-09-26T05:35:58.325Z,11.33
2022-09-26T05:36:58.287Z,11.41
2022-09-26T05:37:58.245Z,11.41
2022-09-26T05:38:58.207Z,11.30
2022-09-26T05:39:58.164Z,11.39
2022-09-26T05:40:58.237Z,11.28
2022-09-26T05:41:58.088Z,11.35
2022-09-26T05:42:58.045Z,11.44
2022-09-26T05:43:58.002Z,11.35
2022-09-26T05:44:57.963Z,11.46
2022-09-26T05:45:57.922Z,11.38
2022-09-26T05:46:57.958Z,11.31
2022-09-26T05:47:57.841Z,11.41
2022-09-26T05:48:57.865Z,11.31
2022-09-26T05:49:57.761Z,11.39
2022-09-26T05:50:57.719Z,11.36
2022-09-26T05:51:58.516Z,11.48
2022-09-26T05:52:57.650Z,11.41
2022-09-26T05:53:59.444Z,11.38
2022-09-26T05:54:57.562Z,11.46
2022-09-26T05:55:57.517Z,11.53
2022-09-26T05:56:57.485Z,11.53
2022-09-26T05:57:57.449Z,11.54
2022-09-26T05:58:57.400Z,11.44
2022-09-26T05:59:57.354Z,11.44
2022-09-26T06:00:57.387Z,11.54
2022-09-26T06:01:57.353Z,11.57
2022-09-26T06:02:57.236Z,11.48
2022-09-26T06:03:57.206Z,11.57
2022-09-26T06:04:57.155Z,11.54
2022-09-26T06:05:57.113Z,11.66
2022-09-26T06:06:57.076Z,11.56
2022-09-26T06:07:57.034Z,11.56
2022-09-26T06:08:57.043Z,11.63
2022-09-26T06:09:56.953Z,11.53
2022-09-26T06:10:56.913Z,11.54
2022-09-26T06:11:56.871Z,11.64
2022-09-26T06:12:56.830Z,11.59
2022-09-26T06:13:56.804Z,11.72
2022-09-26T06:14:56.777Z,11.66
2022-09-26T06:15:56.743Z,11.72
2022-09-26T06:16:56.686Z,11.77
2022-09-26T06:17:56.634Z,11.70
2022-09-26T06:18:56.591Z,11.81
2022-09-26T06:19:56.562Z,11.94
2022-09-26T06:20:56.515Z,11.93
2022-09-26T06:21:56.471Z,11.96
2022-09-26T06:22:56.430Z,11.98
2022-09-26T06:23:56.416Z,11.88
2022-09-26T06:24:56.349Z,11.96
2022-09-26T06:25:56.322Z,12.07
2022-09-26T06:26:56.269Z,11.96
2022-09-26T06:27:59.751Z,12.07
2022-09-26T06:28:56.195Z,12.00
2022-09-26T06:29:56.148Z,12.15
2022-09-26T06:30:56.108Z,12.13
2022-09-26T06:31:56.142Z,12.08
2022-09-26T06:32:56.029Z,12.12
2022-09-26T06:33:55.992Z,12.13
2022-09-26T06:34:55.949Z,12.23
2022-09-26T06:35:55.906Z,12.21
2022-09-26T06:36:55.876Z,12.25
2022-09-26T06:37:55.850Z,12.15
2022-09-26T06:38:55.790Z,12.23
2022-09-26T06:39:59.235Z,12.23
2022-09-26T06:40:55.753Z,12.26
2022-09-26T06:41:55.683Z,12.30
2022-09-26T06:42:55.631Z,12.25
2022-09-26T06:43:55.594Z,12.36
2022-09-26T06:44:55.550Z,12.26
2022-09-26T06:45:55.508Z,12.21
2022-09-26T06:46:55.527Z,12.30
2022-09-26T06:47:55.437Z,12.40
2022-09-26T06:48:55.389Z,12.49
2022-09-26T06:49:55.349Z,12.38
2022-09-26T06:50:55.311Z,12.36
2022-09-26T06:51:55.268Z,12.40
2022-09-26T06:52:55.243Z,12.44
2022-09-26T06:53:55.189Z,12.58
2022-09-26T06:54:55.150Z,12.66
2022-09-26T06:55:55.109Z,12.52
2022-09-26T06:56:55.069Z,12.59
2022-09-26T06:57:55.030Z,12.46
2022-09-26T06:58:55.004Z,12.66
2022-09-26T06:59:54.961Z,12.59
2022-09-26T07:00:55.073Z,12.71
2022-09-26T07:01:55.002Z,12.73
2022-09-26T07:02:54.834Z,12.67
2022-09-26T07:03:54.797Z,12.69
2022-09-26T07:04:54.766Z,12.66
2022-09-26T07:05:54.713Z,12.63
2022-09-26T07:06:54.674Z,12.67
2022-09-26T07:07:54.632Z,12.70
2022-09-26T07:09:04.113Z,12.63
2022-09-26T07:09:54.553Z,12.69
2022-09-26T07:10:54.525Z,12.62
2022-09-26T07:12:14.091Z,12.70
2022-09-26T07:12:54.435Z,12.69
2022-09-26T07:13:54.416Z,12.71
2022-09-26T07:14:54.357Z,12.67
2022-09-26T07:15:54.394Z,12.63
2022-09-26T07:16:54.302Z,12.66
2022-09-26T07:17:54.244Z,12.67
2022-09-26T07:18:54.240Z,12.61
2022-09-26T07:19:54.156Z,12.76
2022-09-26T07:20:56.840Z,12.66
2022-09-26T07:21:54.081Z,12.63
2022-09-26T07:22:54.049Z,12.69
2022-09-26T07:23:53.998Z,12.59
2022-09-26T07:24:53.958Z,12.66
2022-09-26T07:25:53.919Z,12.66
2022-09-26T07:26:53.878Z,12.66
2022-09-26T07:27:53.838Z,12.71
2022-09-26T07:28:54.850Z,12.71
2022-09-26T07:29:53.765Z,12.69
2022-09-26T07:30:53.743Z,12.70
2022-09-26T07:31:53.755Z,12.73
2022-09-26T07:32:53.643Z,12.67
2022-09-26T07:33:53.602Z,12.69
2022-09-26T07:34:53.579Z,12.69
2022-09-26T07:35:53.521Z,12.67
2022-09-26T07:36:53.503Z,12.62
2022-09-26T07:37:53.442Z,12.70
2022-09-26T07:38:53.452Z,12.73
2022-09-26T07:39:56.252Z,12.74
2022-09-26T07:40:53.419Z,12.71
2022-09-26T07:41:53.284Z,12.63
2022-09-26T07:43:09.546Z,12.67
2022-09-26T07:44:52.931Z,12.67
2022-09-26T07:45:21.966Z,12.63
2022-09-26T07:46:01.074Z,12.73
2022-09-26T07:46:53.202Z,12.66
2022-09-26T07:47:53.045Z,12.62
2022-09-26T07:48:53.070Z,12.63
2022-09-26T07:49:53.115Z,12.61
2022-09-26T07:50:52.928Z,12.69
2022-09-26T07:51:52.914Z,12.58
2022-09-26T07:52:52.849Z,12.62
2022-09-26T07:53:52.810Z,12.62
2022-09-26T07:54:52.780Z,12.51
2022-09-26T07:55:52.741Z,12.48
2022-09-26T07:56:52.690Z,12.54
2022-09-26T07:57:52.649Z,12.54
2022-09-26T07:58:52.641Z,12.48
2022-09-26T07:59:52.569Z,12.49
2022-09-26T08:00:52.541Z,12.43
2022-09-26T08:01:52.601Z,12.55
2022-09-26T08:02:52.503Z,12.54
2022-09-26T08:03:52.411Z,12.55
2022-09-26T08:04:52.373Z,12.48
2022-09-26T08:05:52.331Z,12.58
2022-09-26T08:06:52.312Z,12.56
2022-09-26T08:07:52.251Z,12.55
2022-09-26T08:08:52.236Z,12.52
2022-09-26T08:09:52.173Z,12.55
2022-09-26T08:10:52.134Z,12.59
2022-09-26T08:11:52.104Z,12.59
2022-09-26T08:12:52.052Z,12.59
2022-09-26T08:13:52.014Z,12.54
2022-09-26T08:14:51.975Z,12.44
2022-09-26T08:15:52.022Z,12.52
2022-09-26T08:16:51.896Z,12.44
2022-09-26T08:17:51.862Z,12.43
2022-09-26T08:18:51.863Z,12.46
2022-09-26T08:19:51.774Z,12.41
2022-09-26T08:20:51.770Z,12.43
2022-09-26T08:21:51.694Z,12.31
2022-09-26T08:22:51.655Z,12.30
2022-09-26T08:23:51.623Z,12.26
2022-09-26T08:24:51.573Z,12.21
2022-09-26T08:25:51.539Z,12.26
2022-09-26T08:26:51.506Z,12.22
2022-09-26T08:27:51.452Z,12.22
2022-09-26T08:28:51.413Z,12.29
2022-09-26T08:29:51.385Z,12.07
2022-09-26T08:30:51.370Z,12.11
2022-09-26T08:31:51.433Z,12.08
2022-09-26T08:32:51.253Z,12.04
2022-09-26T08:33:51.215Z,12.03
2022-09-26T08:34:51.174Z,11.98
2022-09-26T08:35:51.148Z,11.94
2022-09-26T08:36:51.092Z,11.88
2022-09-26T08:37:51.055Z,11.93
2022-09-26T08:38:51.243Z,11.96
2022-09-26T08:39:50.978Z,11.88
2022-09-26T08:40:50.986Z,11.82
2022-09-26T08:41:50.904Z,11.87
2022-09-26T08:42:50.852Z,11.90
2022-09-26T08:43:50.813Z,11.79
2022-09-26T08:44:50.891Z,11.90
2022-09-26T08:45:50.735Z,11.74
2022-09-26T08:46:50.712Z,11.81
2022-09-26T08:47:50.661Z,11.70
2022-09-26T08:48:50.662Z,11.77
2022-09-26T08:49:50.573Z,11.81
2022-09-26T08:50:50.531Z,11.70
2022-09-26T08:51:50.496Z,11.77
2022-09-26T08:52:50.449Z,11.77
2022-09-26T08:53:50.423Z,11.70
2022-09-26T08:54:50.379Z,11.53
2022-09-26T08:55:50.328Z,11.57
2022-09-26T08:56:50.290Z,11.59
2022-09-26T08:57:50.252Z,11.54
2022-09-26T08:58:50.278Z,11.46
2022-09-26T08:59:50.169Z,11.56
2022-09-26T09:00:50.138Z,11.46
2022-09-26T09:01:50.185Z,11.53
2022-09-26T09:02:50.164Z,11.59
2022-09-26T09:03:50.007Z,11.59
2022-09-26T09:04:53.757Z,11.56
2022-09-26T09:05:49.936Z,11.53
2022-09-26T09:06:49.883Z,11.46
2022-09-26T09:07:49.845Z,11.54
2022-09-26T09:08:49.804Z,11.57
2022-09-26T09:09:53.225Z,11.48
2022-09-26T09:10:49.725Z,11.42
2022-09-26T09:11:51.177Z,11.46
2022-09-26T09:12:49.641Z,11.44
2022-09-26T09:13:49.606Z,11.39
2022-09-26T09:15:07.726Z,11.56
2022-09-26T09:15:49.586Z,11.45
2022-09-26T09:16:49.499Z,11.45
2022-09-26T09:17:49.451Z,11.45
2022-09-26T09:18:49.411Z,11.51
2022-09-26T09:19:49.358Z,11.48
2022-09-26T09:20:49.319Z,11.56
2022-09-26T09:21:49.284Z,11.44
2022-09-26T09:22:49.238Z,11.44
2022-09-26T09:23:49.212Z,11.45
2022-09-26T09:24:49.157Z,11.56
2022-09-26T09:25:49.324Z,11.54
2022-09-26T09:27:52.716Z,11.69
2022-09-26T09:28:48.997Z,11.77
2022-09-26T09:29:49.629Z,11.79
2022-09-26T09:30:48.913Z,11.72
2022-09-26T09:31:48.875Z,11.72
2022-09-26T09:32:48.834Z,11.75
2022-09-26T09:33:48.794Z,11.67
2022-09-26T09:34:53.039Z,11.63
2022-09-26T09:35:48.735Z,11.74
2022-09-26T09:36:48.672Z,11.57
2022-09-26T09:37:48.636Z,11.62
2022-09-26T09:38:48.591Z,11.59
2022-09-26T09:39:48.591Z,11.67
2022-09-26T09:40:48.553Z,11.56
2022-09-26T09:41:48.486Z,11.56
2022-09-26T09:42:48.429Z,11.60
2022-09-26T09:43:48.389Z,11.53
2022-09-26T09:44:48.350Z,11.48
2022-09-26T09:45:48.310Z,11.51
2022-09-26T09:46:48.318Z,11.48
2022-09-26T09:47:48.238Z,11.53
2022-09-26T09:48:48.187Z,11.60
2022-09-26T09:49:48.160Z,11.63
2022-09-26T09:50:48.106Z,11.62
2022-09-26T09:51:48.064Z,11.66
2022-09-26T09:52:48.036Z,11.78
2022-09-26T09:53:48.005Z,11.75
2022-09-26T09:54:47.944Z,11.82
2022-09-26T09:55:47.907Z,11.87
2022-09-26T09:56:48.304Z,11.90
2022-09-26T09:57:47.826Z,11.79
2022-09-26T09:58:47.798Z,11.78
2022-09-26T09:59:47.744Z,11.84
2022-09-26T10:00:51.012Z,11.87
2022-09-26T10:01:48.892Z,11.79
2022-09-26T10:02:47.735Z,11.81
2022-09-26T10:03:49.156Z,11.90
2022-09-26T10:04:47.557Z,11.84
2022-09-26T10:05:47.502Z,11.96
2022-09-26T10:06:47.544Z,11.96
2022-09-26T10:07:47.425Z,11.90
2022-09-26T10:08:47.386Z,11.93
2022-09-26T10:09:49.547Z,11.94
2022-09-26T10:10:47.322Z,11.87
2022-09-26T10:11:52.334Z,11.81
2022-09-26T10:12:47.221Z,11.93
2022-09-26T10:13:47.185Z,11.97
2022-09-26T10:14:47.166Z,11.96
2022-09-26T10:15:47.119Z,11.97
2022-09-26T10:16:47.094Z,11.94
2022-09-26T10:18:06.529Z,11.97
2022-09-26T10:18:46.982Z,11.96
2022-09-26T10:19:46.943Z,11.98
2022-09-26T10:20:46.900Z,12.04
2022-09-26T10:21:46.867Z,12.12
2022-09-26T10:22:46.832Z,12.01
2022-09-26T10:23:46.829Z,12.05
2022-09-26T10:24:46.750Z,12.16
2022-09-26T10:25:46.706Z,12.13
2022-09-26T10:26:46.672Z,12.07
2022-09-26T10:27:46.624Z,12.08
2022-09-26T10:28:46.594Z,12.21
2022-09-26T10:29:48.565Z,12.22
2022-09-26T10:30:46.579Z,12.33
2022-09-26T10:31:46.525Z,12.44
2022-09-26T10:32:46.425Z,12.41
2022-09-26T10:33:46.382Z,12.37
2022-09-26T10:34:46.356Z,12.46
2022-09-26T10:35:46.313Z,12.46
2022-09-26T10:36:46.263Z,12.43
2022-09-26T10:37:46.225Z,12.52
2022-09-26T10:38:46.190Z,12.49
2022-09-26T10:39:46.157Z,12.48
2022-09-26T10:40:46.340Z,12.44
2022-09-26T10:41:46.066Z,12.43
2022-09-26T10:42:46.026Z,12.48
2022-09-26T10:43:45.989Z,12.49
2022-09-26T10:44:45.947Z,12.49
2022-09-26T10:45:45.933Z,12.48
2022-09-26T10:46:45.909Z,12.46
2022-09-26T10:47:45.830Z,12.58
2022-09-26T10:48:45.790Z,12.41
2022-09-26T10:49:46.023Z,12.44
2022-09-26T10:50:45.747Z,12.46
2022-09-26T10:51:45.671Z,12.52
2022-09-26T10:52:45.631Z,12.52
2022-09-26T10:53:45.594Z,12.52
2022-09-26T10:54:45.555Z,12.51
2022-09-26T10:55:45.516Z,12.67
2022-09-26T10:56:45.480Z,12.61
2022-09-26T10:57:45.436Z,12.62
2022-09-26T10:58:45.396Z,12.79
2022-09-26T10:59:45.355Z,12.77
2022-09-26T11:00:45.314Z,12.89
2022-09-26T11:01:45.340Z,12.91
2022-09-26T11:02:45.236Z,12.92
2022-09-26T11:03:45.265Z,13.04
2022-09-26T11:04:45.159Z,13.03
2022-09-26T11:05:45.130Z,13.10
2022-09-26T11:06:45.093Z,13.13
2022-09-26T11:07:45.040Z,13.27
2022-09-26T11:08:45.004Z,13.22
2022-09-26T11:09:44.964Z,13.29
2022-09-26T11:10:44.924Z,13.39
2022-09-26T11:11:44.884Z,13.43
2022-09-26T11:12:44.861Z,13.44
2022-09-26T11:13:44.809Z,13.48
2022-09-26T11:14:44.769Z,13.51
2022-09-26T11:15:44.816Z,13.53
2022-09-26T11:16:44.692Z,13.61
2022-09-26T11:17:44.673Z,13.55
2022-09-26T11:18:44.623Z,13.69
2022-09-26T11:19:44.576Z,13.72
2022-09-26T11:20:44.543Z,13.75
2022-09-26T11:21:44.498Z,13.76
2022-09-26T11:22:44.465Z,13.73
2022-09-26T11:23:44.421Z,13.80
2022-09-26T11:25:05.390Z,13.83
2022-09-26T11:25:44.343Z,13.87
2022-09-26T11:26:44.304Z,13.79
2022-09-26T11:27:44.264Z,13.73
2022-09-26T11:28:44.228Z,13.75
2022-09-26T11:29:44.194Z,13.66
2022-09-26T11:30:44.216Z,13.62
2022-09-26T11:31:44.277Z,13.59
2022-09-26T11:34:15.865Z,13.63
2022-09-26T11:35:15.632Z,13.63
2022-09-26T11:36:15.601Z,13.51
2022-09-26T11:37:15.576Z,13.51
2022-09-26T11:38:15.516Z,13.59
2022-09-26T11:39:15.628Z,13.59
2022-09-26T11:40:15.515Z,13.51
2022-09-26T11:41:15.399Z,13.61
2022-09-26T11:42:15.369Z,13.57
2022-09-26T11:43:15.324Z,13.59
2022-09-26T11:44:15.395Z,13.44
2022-09-26T11:45:15.244Z,13.54
2022-09-26T11:46:15.350Z,13.68
2022-09-26T11:47:15.176Z,13.72
2022-09-26T11:48:15.137Z,13.75
2022-09-26T11:49:15.088Z,13.76
2022-09-26T11:50:15.049Z,13.81
2022-09-26T11:51:15.012Z,13.80
2022-09-26T11:52:14.972Z,13.88
2022-09-26T11:53:14.947Z,13.87
2022-09-26T11:54:14.998Z,13.90
2022-09-26T11:55:14.863Z,14.08
2022-09-26T11:56:14.829Z,14.19
2022-09-26T11:57:14.780Z,14.27
2022-09-26T11:58:14.741Z,14.20
2022-09-26T11:59:14.718Z,14.23
2022-09-26T12:00:14.668Z,14.29
2022-09-26T12:01:14.627Z,14.39
2022-09-26T12:02:14.594Z,14.35
2022-09-26T12:03:14.612Z,14.42
2022-09-26T12:04:14.734Z,14.35
2022-09-26T12:05:14.482Z,14.39
2022-09-26T12:06:14.437Z,14.38
2022-09-26T12:07:14.397Z,14.35
2022-09-26T12:08:14.357Z,14.36
2022-09-26T12:09:14.322Z,14.44
2022-09-26T12:10:14.286Z,14.49
2022-09-26T12:11:14.294Z,14.42
2022-09-26T12:12:14.221Z,14.30
2022-09-26T12:13:14.167Z,14.39
2022-09-26T12:14:14.209Z,14.29
2022-09-26T12:15:14.092Z,14.44
2022-09-26T12:16:14.147Z,14.35
2022-09-26T12:17:14.016Z,14.31
2022-09-26T12:18:13.980Z,14.21
2022-09-26T12:19:16.474Z,14.16
2022-09-26T12:20:13.897Z,14.26
2022-09-26T12:21:13.869Z,14.27
2022-09-26T12:22:13.824Z,14.12
2022-09-26T12:23:13.784Z,14.05
2022-09-26T12:24:13.838Z,14.06
2022-09-26T12:25:16.642Z,13.98
2022-09-26T12:26:13.674Z,13.98
2022-09-26T12:27:13.629Z,13.98
2022-09-26T12:28:13.591Z,13.99
2022-09-26T12:29:13.552Z,13.98
2022-09-26T12:30:13.525Z,13.87
2022-09-26T12:31:18.686Z,13.73
2022-09-26T12:32:13.436Z,13.71
2022-09-26T12:33:13.399Z,13.80
2022-09-26T12:34:13.373Z,13.69
2022-09-26T12:35:13.321Z,13.62
2022-09-26T12:36:13.292Z,13.66
2022-09-26T12:37:13.261Z,13.57
2022-09-26T12:38:13.229Z,13.55
2022-09-26T12:39:13.167Z,13.53
2022-09-26T12:40:13.155Z,13.54
2022-09-26T12:41:13.085Z,13.43
2022-09-26T12:42:13.058Z,13.43
2022-09-26T12:43:13.013Z,13.29
2022-09-26T12:44:12.969Z,13.32
2022-09-26T12:45:12.932Z,13.24
2022-09-26T12:46:12.933Z,13.28
2022-09-26T12:47:12.853Z,13.16
2022-09-26T12:48:12.817Z,13.16
2022-09-26T12:49:12.824Z,13.14
2022-09-26T12:50:12.733Z,13.16
2022-09-26T12:51:12.692Z,13.14
2022-09-26T12:52:12.665Z,13.04
2022-09-26T12:53:12.612Z,13.06
2022-09-26T12:54:12.572Z,12.98